AFL640 URSS-LTFM
Flight info
| Callsign | AFL640 |
|---|---|
| Flight time | 1h 32m |
| Altitude | 32000 |
| Route | LAMET1D LAMET G487 ODIRA/N0423F320 UW96 SIN UW90 DEVMU UL852 EVPIM UT304 LUUPU UT310 NUGBA |
| Aircraft | A320/M-SDE3FGHIRWY/LB1 |
Departure
| Time | 2026-05-04 16:05 |
|---|---|
| Airport | Sochi International Airport (URSS) |
Arrival
| Time | 2026-05-04 17:37 |
|---|---|
| Airport | İstanbul Airport (LTFM) |
| Time | Latitude | Longitude | Altitude | Speed | Heading |
|---|---|---|---|---|---|
| 2026-05-04 15:28 | 43.44697 | 39.94037 | 61 ft | 0 kts | 334° |
| 2026-05-04 15:47 | 43.44690 | 39.94042 | 62 ft | 4 kts | 335° |
| 2026-05-04 15:47 | 43.44665 | 39.94056 | 66 ft | 4 kts | 340° |
| 2026-05-04 15:47 | 43.44639 | 39.94068 | 70 ft | 4 kts | 345° |
| 2026-05-04 15:47 | 43.44613 | 39.94076 | 64 ft | 4 kts | 355° |
| 2026-05-04 15:48 | 43.44587 | 39.94074 | 70 ft | 4 kts | 26° |
| 2026-05-04 15:48 | 43.44576 | 39.94062 | 67 ft | 0 kts | 65° |
| 2026-05-04 15:57 | 43.44579 | 39.94071 | 67 ft | 6 kts | 65° |
| 2026-05-04 15:58 | 43.44611 | 39.94165 | 72 ft | 12 kts | 65° |
| 2026-05-04 15:58 | 43.44649 | 39.94277 | 69 ft | 14 kts | 65° |
| 2026-05-04 15:58 | 43.44692 | 39.94403 | 68 ft | 15 kts | 65° |
| 2026-05-04 15:58 | 43.44739 | 39.94540 | 68 ft | 16 kts | 64° |
| 2026-05-04 15:59 | 43.44790 | 39.94689 | 72 ft | 18 kts | 65° |
| 2026-05-04 15:59 | 43.44845 | 39.94851 | 64 ft | 19 kts | 64° |
| 2026-05-04 15:59 | 43.44900 | 39.95009 | 82 ft | 18 kts | 64° |
| 2026-05-04 15:59 | 43.44952 | 39.95158 | 84 ft | 17 kts | 62° |
| 2026-05-04 16:00 | 43.45000 | 39.95296 | 89 ft | 15 kts | 65° |
| 2026-05-04 16:00 | 43.45030 | 39.95382 | 91 ft | 15 kts | 65° |
| 2026-05-04 16:00 | 43.45076 | 39.95502 | 92 ft | 14 kts | 48° |
| 2026-05-04 16:00 | 43.45159 | 39.95570 | 92 ft | 15 kts | 29° |
| 2026-05-04 16:01 | 43.45228 | 39.95641 | 92 ft | 11 kts | 60° |
| 2026-05-04 16:01 | 43.45262 | 39.95723 | 92 ft | 9 kts | 59° |
| 2026-05-04 16:01 | 43.45301 | 39.95852 | 94 ft | 12 kts | 100° |
| 2026-05-04 16:01 | 43.45266 | 39.95943 | 93 ft | 8 kts | 119° |
| 2026-05-04 16:02 | 43.45220 | 39.95944 | 92 ft | 8 kts | 211° |
| 2026-05-04 16:02 | 43.45201 | 39.95929 | 91 ft | 0 kts | 209° |
| 2026-05-04 16:03 | 43.45186 | 39.95918 | 91 ft | 12 kts | 209° |
| 2026-05-04 16:03 | 43.45076 | 39.95834 | 88 ft | 14 kts | 208° |
| 2026-05-04 16:03 | 43.45047 | 39.95800 | 92 ft | 0 kts | 244° |
| 2026-05-04 16:04 | 43.45043 | 39.95788 | 92 ft | 8 kts | 244° |
| 2026-05-04 16:04 | 43.44612 | 39.94525 | 69 ft | 138 kts | 245° |
| 2026-05-04 16:04 | 43.44151 | 39.93117 | 223 ft | 172 kts | 246° |
| 2026-05-04 16:05 | 43.43683 | 39.91624 | 890 ft | 170 kts | 256° |
| 2026-05-04 16:05 | 43.43368 | 39.90053 | 1535 ft | 169 kts | 259° |
| 2026-05-04 16:05 | 43.42868 | 39.86926 | 2580 ft | 166 kts | 259° |
| 2026-05-04 16:06 | 43.42621 | 39.85374 | 3136 ft | 166 kts | 258° |
| 2026-05-04 16:06 | 43.41862 | 39.80731 | 3976 ft | 216 kts | 257° |
| 2026-05-04 16:07 | 43.41384 | 39.77853 | 4420 ft | 249 kts | 257° |
| 2026-05-04 16:07 | 43.40114 | 39.70418 | 6680 ft | 271 kts | 256° |
| 2026-05-04 16:08 | 43.39677 | 39.67879 | 7523 ft | 275 kts | 256° |
| 2026-05-04 16:08 | 43.38203 | 39.60111 | 9957 ft | 286 kts | 250° |
| 2026-05-04 16:09 | 43.36850 | 39.54683 | 10743 ft | 321 kts | 249° |
| 2026-05-04 16:09 | 43.35352 | 39.48701 | 11983 ft | 337 kts | 248° |
| 2026-05-04 16:10 | 43.33861 | 39.42509 | 13374 ft | 346 kts | 248° |
| 2026-05-04 16:11 | 43.31578 | 39.32920 | 15184 ft | 360 kts | 248° |
| 2026-05-04 16:11 | 43.30795 | 39.29625 | 15765 ft | 365 kts | 248° |
| 2026-05-04 16:12 | 43.28372 | 39.19490 | 17466 ft | 380 kts | 246° |
| 2026-05-04 16:12 | 43.25845 | 39.08965 | 19008 ft | 394 kts | 247° |
| 2026-05-04 16:13 | 43.24111 | 39.01759 | 19948 ft | 402 kts | 247° |
| 2026-05-04 16:13 | 43.22327 | 38.94402 | 20876 ft | 411 kts | 247° |
| 2026-05-04 16:14 | 43.20498 | 38.86878 | 21757 ft | 420 kts | 248° |
| 2026-05-04 16:14 | 43.18633 | 38.79203 | 22626 ft | 429 kts | 248° |
| 2026-05-04 16:15 | 43.15739 | 38.67417 | 23809 ft | 441 kts | 248° |
| 2026-05-04 16:16 | 43.13777 | 38.59441 | 24482 ft | 449 kts | 248° |
| 2026-05-04 16:16 | 43.10748 | 38.47153 | 25538 ft | 458 kts | 248° |
| 2026-05-04 16:17 | 43.08691 | 38.38853 | 26242 ft | 463 kts | 248° |
| 2026-05-04 16:18 | 43.05546 | 38.26228 | 27281 ft | 472 kts | 249° |
| 2026-05-04 16:18 | 43.04478 | 38.21968 | 27587 ft | 475 kts | 249° |
| 2026-05-04 16:19 | 43.01229 | 38.09064 | 28567 ft | 483 kts | 249° |
| 2026-05-04 16:19 | 42.99030 | 38.00343 | 29207 ft | 488 kts | 249° |
| 2026-05-04 16:20 | 42.95686 | 37.87101 | 30143 ft | 494 kts | 249° |
| 2026-05-04 16:20 | 42.93421 | 37.78225 | 30683 ft | 496 kts | 249° |
| 2026-05-04 16:21 | 42.90011 | 37.64873 | 31613 ft | 496 kts | 249° |
| 2026-05-04 16:22 | 42.87768 | 37.56103 | 31912 ft | 483 kts | 249° |
| 2026-05-04 16:22 | 42.84500 | 37.43441 | 31898 ft | 468 kts | 248° |
| 2026-05-04 16:23 | 42.81247 | 37.30930 | 31897 ft | 467 kts | 248° |
| 2026-05-04 16:25 | 42.74713 | 37.05951 | 31875 ft | 468 kts | 248° |
| 2026-05-04 16:26 | 42.65809 | 36.77509 | 31894 ft | 467 kts | 241° |
| 2026-05-04 16:28 | 42.58630 | 36.57758 | 31890 ft | 467 kts | 241° |
| 2026-05-04 16:29 | 42.48477 | 36.30126 | 31873 ft | 468 kts | 241° |
| 2026-05-04 16:31 | 42.41163 | 36.10429 | 31896 ft | 470 kts | 241° |
| 2026-05-04 16:32 | 42.32329 | 35.86757 | 31930 ft | 468 kts | 241° |
| 2026-05-04 16:33 | 42.26436 | 35.71120 | 31948 ft | 466 kts | 241° |
| 2026-05-04 16:34 | 42.22030 | 35.59449 | 31940 ft | 464 kts | 241° |
| 2026-05-04 16:35 | 42.13221 | 35.36277 | 31915 ft | 462 kts | 242° |
| 2026-05-04 16:36 | 42.08843 | 35.24738 | 31898 ft | 465 kts | 242° |
| 2026-05-04 16:37 | 42.04400 | 35.13104 | 31920 ft | 466 kts | 242° |
| 2026-05-04 16:37 | 42.02303 | 35.04881 | 31930 ft | 466 kts | 261° |
| 2026-05-04 16:38 | 42.01740 | 34.96219 | 31932 ft | 465 kts | 267° |
| 2026-05-04 16:39 | 42.00647 | 34.74536 | 31901 ft | 465 kts | 268° |
| 2026-05-04 16:40 | 41.99802 | 34.57094 | 31911 ft | 468 kts | 268° |
| 2026-05-04 16:41 | 41.98689 | 34.35289 | 31917 ft | 468 kts | 268° |
| 2026-05-04 16:43 | 41.97529 | 34.13393 | 31896 ft | 471 kts | 268° |
| 2026-05-04 16:43 | 41.96814 | 34.00241 | 31900 ft | 472 kts | 268° |
| 2026-05-04 16:45 | 41.95321 | 33.73775 | 31890 ft | 473 kts | 269° |
| 2026-05-04 16:46 | 41.94127 | 33.53196 | 31910 ft | 474 kts | 269° |
| 2026-05-04 16:47 | 41.93056 | 33.35541 | 31883 ft | 474 kts | 269° |
| 2026-05-04 16:48 | 41.91974 | 33.17891 | 31905 ft | 475 kts | 269° |
| 2026-05-04 16:49 | 41.90864 | 33.00287 | 31938 ft | 473 kts | 269° |
| 2026-05-04 16:50 | 41.89727 | 32.82806 | 31947 ft | 469 kts | 270° |
| 2026-05-04 16:51 | 41.88862 | 32.69753 | 31944 ft | 467 kts | 270° |
| 2026-05-04 16:52 | 41.87684 | 32.52416 | 31896 ft | 466 kts | 270° |
| 2026-05-04 16:53 | 41.88730 | 32.39854 | 31912 ft | 444 kts | 295° |
| 2026-05-04 16:53 | 41.90486 | 32.27527 | 31910 ft | 456 kts | 279° |
| 2026-05-04 16:54 | 41.90476 | 32.23242 | 31904 ft | 463 kts | 270° |
| 2026-05-04 16:55 | 41.87352 | 32.06264 | 31911 ft | 470 kts | 258° |
| 2026-05-04 16:55 | 41.85620 | 31.97807 | 31916 ft | 470 kts | 259° |
| 2026-05-04 16:56 | 41.81261 | 31.76748 | 31917 ft | 469 kts | 258° |
| 2026-05-04 16:57 | 41.78616 | 31.64114 | 31913 ft | 469 kts | 258° |
| 2026-05-04 16:58 | 41.75074 | 31.47284 | 31907 ft | 469 kts | 259° |
| 2026-05-04 17:00 | 41.69722 | 31.22130 | 31923 ft | 468 kts | 259° |
| 2026-05-04 17:01 | 41.65489 | 31.01212 | 31923 ft | 465 kts | 261° |
| 2026-05-04 17:01 | 41.63952 | 30.92743 | 31927 ft | 476 kts | 261° |
| 2026-05-04 17:02 | 41.62348 | 30.84163 | 30835 ft | 473 kts | 260° |
| 2026-05-04 17:02 | 41.60711 | 30.75702 | 29749 ft | 465 kts | 261° |
| 2026-05-04 17:03 | 41.59903 | 30.71555 | 28808 ft | 458 kts | 261° |
| 2026-05-04 17:03 | 41.59308 | 30.67433 | 27951 ft | 442 kts | 271° |
| 2026-05-04 17:03 | 41.59436 | 30.59589 | 27326 ft | 412 kts | 280° |
| 2026-05-04 17:04 | 41.59710 | 30.52024 | 26424 ft | 404 kts | 280° |
| 2026-05-04 17:04 | 41.59969 | 30.44574 | 25564 ft | 398 kts | 280° |
| 2026-05-04 17:05 | 41.60223 | 30.37308 | 24524 ft | 389 kts | 280° |
| 2026-05-04 17:05 | 41.60849 | 30.30320 | 23209 ft | 364 kts | 296° |
| 2026-05-04 17:06 | 41.63147 | 30.24626 | 22436 ft | 339 kts | 318° |
| 2026-05-04 17:06 | 41.64738 | 30.22353 | 22078 ft | 333 kts | 322° |
| 2026-05-04 17:07 | 41.67949 | 30.17924 | 21383 ft | 330 kts | 321° |
| 2026-05-04 17:07 | 41.69001 | 30.16463 | 21152 ft | 329 kts | 321° |
| 2026-05-04 17:07 | 41.71098 | 30.13551 | 20650 ft | 327 kts | 321° |
| 2026-05-04 17:07 | 41.72673 | 30.11366 | 20283 ft | 325 kts | 321° |
| 2026-05-04 17:08 | 41.74069 | 30.08960 | 19909 ft | 334 kts | 304° |
| 2026-05-04 17:08 | 41.74426 | 30.02684 | 19133 ft | 361 kts | 254° |
| 2026-05-04 17:08 | 41.73141 | 29.99772 | 18729 ft | 368 kts | 234° |
| 2026-05-04 17:09 | 41.71522 | 29.97116 | 18306 ft | 368 kts | 233° |
| 2026-05-04 17:09 | 41.69886 | 29.94481 | 17901 ft | 366 kts | 233° |
| 2026-05-04 17:09 | 41.68256 | 29.91876 | 17477 ft | 364 kts | 233° |
| 2026-05-04 17:10 | 41.65054 | 29.86760 | 16713 ft | 359 kts | 233° |
| 2026-05-04 17:10 | 41.61855 | 29.78198 | 15746 ft | 334 kts | 268° |
| 2026-05-04 17:11 | 41.61702 | 29.75142 | 15482 ft | 327 kts | 273° |
| 2026-05-04 17:11 | 41.61601 | 29.72107 | 15236 ft | 326 kts | 273° |
| 2026-05-04 17:11 | 41.61382 | 29.66071 | 14744 ft | 324 kts | 272° |
| 2026-05-04 17:12 | 41.61270 | 29.63069 | 14500 ft | 323 kts | 272° |
| 2026-05-04 17:12 | 41.60314 | 29.57206 | 14010 ft | 330 kts | 245° |
| 2026-05-04 17:13 | 41.55506 | 29.50599 | 13031 ft | 333 kts | 222° |
| 2026-05-04 17:14 | 41.50243 | 29.44621 | 12053 ft | 329 kts | 222° |
| 2026-05-04 17:14 | 41.48509 | 29.42654 | 11743 ft | 328 kts | 222° |
| 2026-05-04 17:14 | 41.45047 | 29.38730 | 11133 ft | 325 kts | 222° |
| 2026-05-04 17:15 | 41.43318 | 29.36802 | 10821 ft | 324 kts | 220° |
| 2026-05-04 17:15 | 41.39720 | 29.33213 | 10215 ft | 321 kts | 217° |
| 2026-05-04 17:16 | 41.36029 | 29.30276 | 9973 ft | 303 kts | 198° |
| 2026-05-04 17:16 | 41.29857 | 29.29635 | 9986 ft | 297 kts | 177° |
| 2026-05-04 17:17 | 41.27783 | 29.29632 | 9985 ft | 298 kts | 177° |
| 2026-05-04 17:17 | 41.21903 | 29.31415 | 9991 ft | 286 kts | 139° |
| 2026-05-04 17:18 | 41.20406 | 29.33085 | 9989 ft | 278 kts | 125° |
| 2026-05-04 17:18 | 41.17848 | 29.36859 | 9993 ft | 278 kts | 126° |
| 2026-05-04 17:19 | 41.15010 | 29.40382 | 9988 ft | 285 kts | 143° |
| 2026-05-04 17:19 | 41.11667 | 29.43213 | 9987 ft | 285 kts | 142° |
| 2026-05-04 17:20 | 41.08331 | 29.46061 | 9986 ft | 286 kts | 145° |
| 2026-05-04 17:20 | 41.04586 | 29.47959 | 9985 ft | 290 kts | 159° |
| 2026-05-04 17:20 | 41.02598 | 29.48448 | 9869 ft | 291 kts | 180° |
| 2026-05-04 17:21 | 40.99016 | 29.46441 | 9592 ft | 282 kts | 230° |
| 2026-05-04 17:21 | 40.97502 | 29.41902 | 9320 ft | 269 kts | 264° |
| 2026-05-04 17:22 | 40.97130 | 29.39473 | 9186 ft | 269 kts | 264° |
| 2026-05-04 17:22 | 40.96766 | 29.37087 | 9051 ft | 268 kts | 264° |
| 2026-05-04 17:23 | 40.95662 | 29.29889 | 8657 ft | 265 kts | 264° |
| 2026-05-04 17:23 | 40.95296 | 29.27509 | 8524 ft | 264 kts | 264° |
| 2026-05-04 17:23 | 40.94559 | 29.22760 | 8241 ft | 264 kts | 265° |
| 2026-05-04 17:24 | 40.94191 | 29.20388 | 8119 ft | 263 kts | 265° |
| 2026-05-04 17:24 | 40.93091 | 29.13355 | 7729 ft | 260 kts | 265° |
| 2026-05-04 17:25 | 40.92728 | 29.11032 | 7505 ft | 256 kts | 265° |
| 2026-05-04 17:25 | 40.92013 | 29.06510 | 7009 ft | 246 kts | 266° |
| 2026-05-04 17:26 | 40.91325 | 29.02105 | 6431 ft | 241 kts | 266° |
| 2026-05-04 17:26 | 40.90099 | 28.95734 | 5833 ft | 236 kts | 262° |
| 2026-05-04 17:27 | 40.89191 | 28.91510 | 5710 ft | 240 kts | 261° |
| 2026-05-04 17:27 | 40.88281 | 28.87256 | 5598 ft | 240 kts | 261° |
| 2026-05-04 17:28 | 40.87569 | 28.83025 | 5486 ft | 230 kts | 282° |
| 2026-05-04 17:29 | 40.90253 | 28.78766 | 5321 ft | 207 kts | 337° |
| 2026-05-04 17:29 | 40.94107 | 28.76163 | 5117 ft | 208 kts | 333° |
| 2026-05-04 17:30 | 40.97837 | 28.73418 | 5006 ft | 197 kts | 349° |
| 2026-05-04 17:31 | 41.00508 | 28.73271 | 5010 ft | 190 kts | 359° |
| 2026-05-04 17:31 | 41.04367 | 28.73199 | 5009 ft | 180 kts | 359° |
| 2026-05-04 17:32 | 41.06873 | 28.73150 | 5011 ft | 181 kts | 359° |
| 2026-05-04 17:33 | 41.10817 | 28.73074 | 3864 ft | 195 kts | 359° |
| 2026-05-04 17:33 | 41.12182 | 28.73048 | 3329 ft | 197 kts | 359° |
| 2026-05-04 17:34 | 41.15737 | 28.72979 | 2439 ft | 184 kts | 360° |
| 2026-05-04 17:34 | 41.16996 | 28.72955 | 2191 ft | 177 kts | 0° |
| 2026-05-04 17:35 | 41.20224 | 28.72891 | 1548 ft | 136 kts | 0° |
| 2026-05-04 17:35 | 41.22082 | 28.72855 | 1173 ft | 132 kts | 359° |
| 2026-05-04 17:35 | 41.22995 | 28.72840 | 973 ft | 130 kts | 358° |
| 2026-05-04 17:36 | 41.23901 | 28.72826 | 815 ft | 130 kts | 357° |
| 2026-05-04 17:36 | 41.24804 | 28.72808 | 637 ft | 129 kts | 356° |
| 2026-05-04 17:36 | 41.25704 | 28.72789 | 456 ft | 129 kts | 356° |
| 2026-05-04 17:36 | 41.26594 | 28.72774 | 336 ft | 122 kts | 355° |
| 2026-05-04 17:37 | 41.27305 | 28.72744 | 330 ft | 78 kts | 359° |
| 2026-05-04 17:37 | 41.27688 | 28.72741 | 333 ft | 41 kts | 358° |
| 2026-05-04 17:37 | 41.27944 | 28.72760 | 330 ft | 34 kts | 16° |
| 2026-05-04 17:37 | 41.28104 | 28.72861 | 334 ft | 0 kts | 30° |
| 2026-05-04 17:38 | 41.28111 | 28.72867 | 334 ft | 8 kts | 30° |
| 2026-05-04 17:38 | 41.28133 | 28.72946 | 334 ft | 9 kts | 117° |
| 2026-05-04 17:38 | 41.28082 | 28.72962 | 330 ft | 7 kts | 181° |
| 2026-05-04 17:39 | 41.28034 | 28.72961 | 330 ft | 0 kts | 181° |
| 2026-05-04 17:39 | 41.28031 | 28.72961 | 334 ft | 1 kts | 181° |
| 2026-05-04 17:39 | 41.28026 | 28.72960 | 334 ft | 1 kts | 181° |
| 2026-05-04 17:40 | 41.28022 | 28.72960 | 331 ft | 1 kts | 181° |
| 2026-05-04 17:40 | 41.28018 | 28.72960 | 331 ft | 4 kts | 180° |
| 2026-05-04 17:40 | 41.27956 | 28.72965 | 332 ft | 7 kts | 176° |
| 2026-05-04 17:40 | 41.27902 | 28.72966 | 334 ft | 14 kts | 180° |
| 2026-05-04 17:41 | 41.27789 | 28.72968 | 331 ft | 16 kts | 179° |
| 2026-05-04 17:41 | 41.27679 | 28.72970 | 330 ft | 15 kts | 179° |
| 2026-05-04 17:41 | 41.27580 | 28.72972 | 332 ft | 14 kts | 179° |
| 2026-05-04 17:41 | 41.27490 | 28.72974 | 332 ft | 12 kts | 177° |
| 2026-05-04 17:42 | 41.27409 | 28.72977 | 331 ft | 11 kts | 179° |
| 2026-05-04 17:42 | 41.27335 | 28.72978 | 330 ft | 11 kts | 180° |
| 2026-05-04 17:42 | 41.27230 | 28.72981 | 334 ft | 16 kts | 179° |
| 2026-05-04 17:42 | 41.27120 | 28.72983 | 332 ft | 15 kts | 179° |
| 2026-05-04 17:43 | 41.27020 | 28.72985 | 329 ft | 14 kts | 179° |
| 2026-05-04 17:43 | 41.26930 | 28.72987 | 329 ft | 12 kts | 179° |
| 2026-05-04 17:43 | 41.26883 | 28.72996 | 331 ft | 6 kts | 152° |
| 2026-05-04 17:43 | 41.26863 | 28.73035 | 332 ft | 4 kts | 109° |
| 2026-05-04 17:44 | 41.26865 | 28.73073 | 332 ft | 7 kts | 86° |
| 2026-05-04 17:44 | 41.26867 | 28.73166 | 333 ft | 10 kts | 90° |
| 2026-05-04 17:44 | 41.26828 | 28.73222 | 333 ft | 8 kts | 169° |
| 2026-05-04 17:44 | 41.26773 | 28.73224 | 331 ft | 7 kts | 179° |
| 2026-05-04 17:45 | 41.26725 | 28.73226 | 331 ft | 6 kts | 179° |
| 2026-05-04 17:45 | 41.26664 | 28.73227 | 334 ft | 17 kts | 179° |
| 2026-05-04 17:45 | 41.26514 | 28.73231 | 332 ft | 22 kts | 179° |
| 2026-05-04 17:46 | 41.26285 | 28.73236 | 330 ft | 6 kts | 179° |
| 2026-05-04 17:46 | 41.26248 | 28.73237 | 333 ft | 7 kts | 179° |
| 2026-05-04 17:46 | 41.26133 | 28.73240 | 331 ft | 20 kts | 179° |
| 2026-05-04 17:46 | 41.26006 | 28.73242 | 334 ft | 14 kts | 179° |
| 2026-05-04 17:47 | 41.25930 | 28.73249 | 333 ft | 8 kts | 162° |
| 2026-05-04 17:47 | 41.25911 | 28.73301 | 333 ft | 6 kts | 93° |
| 2026-05-04 17:47 | 41.25909 | 28.73352 | 330 ft | 5 kts | 100° |
| 2026-05-04 17:47 | 41.25895 | 28.73388 | 333 ft | 4 kts | 129° |
| 2026-05-04 17:48 | 41.25883 | 28.73413 | 332 ft | 3 kts | 115° |
| 2026-05-04 17:48 | 41.25877 | 28.73439 | 330 ft | 7 kts | 107° |
| 2026-05-04 17:48 | 41.25867 | 28.73482 | 332 ft | 0 kts | 108° |
| 2026-05-04 17:48 | 41.25866 | 28.73487 | 332 ft | 1 kts | 107° |
| 2026-05-04 17:49 | 41.25864 | 28.73495 | 332 ft | 2 kts | 107° |
| 2026-05-04 17:49 | 41.25863 | 28.73502 | 332 ft | 0 kts | 107° |